createdAt,value
2022-09-16T00:02:12.598Z,11.57
2022-09-16T00:04:44.666Z,11.74
2022-09-16T00:07:12.572Z,11.76
2022-09-16T00:12:33.055Z,11.70
2022-09-16T00:15:31.676Z,11.57
2022-09-16T00:18:00.005Z,11.69
2022-09-16T00:20:28.982Z,11.69
2022-09-16T00:22:56.698Z,11.70
2022-09-16T00:25:24.654Z,11.67
2022-09-16T00:27:52.653Z,11.74
2022-09-16T00:30:21.188Z,11.63
2022-09-16T00:32:48.646Z,11.65
2022-09-16T00:35:16.597Z,11.74
2022-09-16T00:37:44.709Z,11.80
2022-09-16T00:40:12.857Z,11.67
2022-09-16T00:42:41.040Z,11.85
2022-09-16T00:45:22.946Z,11.73
2022-09-16T00:47:57.722Z,11.73
2022-09-16T00:53:26.958Z,11.77
2022-09-16T00:56:23.727Z,11.69
2022-09-16T00:58:53.522Z,11.71
2022-09-16T01:04:27.454Z,11.71
2022-09-16T01:06:54.813Z,11.70
2022-09-16T01:09:25.694Z,11.80
2022-09-16T01:11:52.641Z,11.83
2022-09-16T01:14:54.563Z,11.90
2022-09-16T01:17:50.038Z,11.98
2022-09-16T01:24:04.002Z,11.99
2022-09-16T01:26:59.881Z,12.08
2022-09-16T01:29:44.275Z,12.09
2022-09-16T01:32:20.402Z,12.09
2022-09-16T01:35:18.952Z,12.02
2022-09-16T01:38:24.237Z,12.02
2022-09-16T01:41:00.802Z,11.97
2022-09-16T01:43:57.944Z,12.12
2022-09-16T01:46:53.610Z,12.02
2022-09-16T01:49:29.257Z,11.99
2022-09-16T01:52:17.761Z,11.98
2022-09-16T01:55:13.586Z,12.05
2022-09-16T01:57:51.986Z,11.84
2022-09-16T02:00:24.610Z,11.94
2022-09-16T02:03:02.368Z,11.81
2022-09-16T02:08:56.022Z,11.87
2022-09-16T02:11:51.115Z,11.80
2022-09-16T02:14:28.105Z,11.83
2022-09-16T02:17:05.896Z,11.80
2022-09-16T02:20:08.056Z,11.80
2022-09-16T02:22:44.162Z,11.73
2022-09-16T02:25:44.727Z,11.80
2022-09-16T02:28:19.125Z,11.77
2022-09-16T02:30:52.770Z,11.66
2022-09-16T02:33:22.344Z,11.73
2022-09-16T02:36:23.445Z,11.63
2022-09-16T02:38:55.996Z,11.67
2022-09-16T02:41:28.675Z,11.57
2022-09-16T02:44:01.716Z,11.70
2022-09-16T02:46:46.510Z,11.53
2022-09-16T02:49:44.350Z,11.66
2022-09-16T02:52:31.613Z,11.76
2022-09-16T02:55:10.313Z,11.63
2022-09-16T02:57:38.562Z,11.57
2022-09-16T03:00:07.334Z,11.56
2022-09-16T03:02:35.596Z,11.60
2022-09-16T03:05:03.724Z,11.55
2022-09-16T03:07:30.957Z,11.49
2022-09-16T03:10:04.214Z,11.43
2022-09-16T03:13:08.124Z,11.35
2022-09-16T03:19:21.459Z,11.43
2022-09-16T03:22:02.464Z,11.49
2022-09-16T03:25:08.028Z,11.57
2022-09-16T03:27:51.206Z,11.70
2022-09-16T03:34:11.772Z,11.77
2022-09-16T03:36:51.674Z,11.71
2022-09-16T03:39:19.277Z,11.66
2022-09-16T03:45:04.926Z,11.43
2022-09-16T03:47:33.104Z,11.45
2022-09-16T03:50:00.861Z,11.50
2022-09-16T03:52:28.745Z,11.46
2022-09-16T03:54:56.751Z,11.46
2022-09-16T03:57:29.780Z,11.45
2022-09-16T03:59:56.757Z,11.45
2022-09-16T04:02:53.661Z,11.28
2022-09-16T04:05:20.678Z,11.30
2022-09-16T04:07:52.531Z,11.30
2022-09-16T04:10:20.682Z,11.22
2022-09-16T04:13:17.568Z,11.16
2022-09-16T04:16:09.363Z,11.07
2022-09-16T04:18:36.624Z,11.10
2022-09-16T04:21:04.941Z,11.07
2022-09-16T04:23:32.538Z,11.19
2022-09-16T04:26:04.448Z,11.18
2022-09-16T04:28:33.597Z,11.22
2022-09-16T04:31:05.553Z,11.18
2022-09-16T04:33:34.233Z,11.14
2022-09-16T04:36:25.001Z,11.19
2022-09-16T04:38:52.792Z,11.26
2022-09-16T04:41:23.090Z,11.21
2022-09-16T04:43:52.801Z,11.15
2022-09-16T04:46:20.848Z,10.98
2022-09-16T04:48:50.223Z,11.04
2022-09-16T04:51:42.614Z,11.07
2022-09-16T04:54:17.099Z,11.15
2022-09-16T04:56:44.563Z,11.15
2022-09-16T04:59:12.512Z,11.11
2022-09-16T05:01:40.783Z,10.97
2022-09-16T05:04:10.347Z,11.05
2022-09-16T05:09:40.471Z,11.14
2022-09-16T05:12:08.871Z,11.19
2022-09-16T05:15:00.544Z,11.01
2022-09-16T05:17:50.427Z,11.08
2022-09-16T05:20:24.576Z,11.10
2022-09-16T05:22:52.590Z,11.10
2022-09-16T05:25:20.707Z,11.15
2022-09-16T05:27:48.651Z,10.92
2022-09-16T05:30:42.086Z,11.10
2022-09-16T05:39:04.727Z,11.29
2022-09-16T05:41:36.136Z,11.29
2022-09-16T05:44:06.644Z,11.18
2022-09-16T05:49:26.886Z,11.12
2022-09-16T05:51:55.528Z,11.16
2022-09-16T05:57:12.228Z,11.12
2022-09-16T06:02:44.025Z,11.21
2022-09-16T06:05:13.005Z,11.14
2022-09-16T06:22:30.971Z,11.40
2022-09-16T06:33:20.442Z,11.39
2022-09-16T06:35:51.085Z,11.28
2022-09-16T06:38:25.209Z,11.40
2022-09-16T06:40:52.559Z,11.45
2022-09-16T06:43:20.573Z,11.42
2022-09-16T06:45:57.582Z,11.56
2022-09-16T06:48:24.768Z,11.69
2022-09-16T06:51:02.374Z,11.67
2022-09-16T06:53:34.541Z,11.66
2022-09-16T06:56:08.022Z,11.56
2022-09-16T06:58:37.781Z,11.67
2022-09-16T07:01:09.685Z,11.69
2022-09-16T07:03:47.123Z,11.74
2022-09-16T07:06:15.951Z,11.63
2022-09-16T07:08:48.697Z,11.94
2022-09-16T07:11:18.842Z,11.95
2022-09-16T07:13:53.232Z,11.98
2022-09-16T07:16:27.014Z,12.01
2022-09-16T07:19:00.713Z,12.08
2022-09-16T07:21:30.428Z,12.21
2022-09-16T07:24:05.591Z,12.22
2022-09-16T07:26:35.040Z,12.29
2022-09-16T07:29:04.647Z,12.33
2022-09-16T07:31:35.700Z,12.42
2022-09-16T07:34:05.006Z,12.43
2022-09-16T07:36:44.922Z,12.38
2022-09-16T07:39:19.475Z,12.49
2022-09-16T07:41:48.534Z,12.57
2022-09-16T07:44:19.010Z,12.64
2022-09-16T07:46:47.078Z,12.90
2022-09-16T07:49:15.157Z,12.88
2022-09-16T07:51:43.377Z,12.96
2022-09-16T07:54:13.688Z,13.28
2022-09-16T07:56:41.847Z,13.22
2022-09-16T07:59:39.849Z,13.24
2022-09-16T08:02:17.835Z,13.16
2022-09-16T08:04:44.730Z,13.12
2022-09-16T08:07:12.680Z,13.14
2022-09-16T08:09:50.992Z,13.15
2022-09-16T08:12:20.662Z,13.39
2022-09-16T08:14:48.517Z,13.39
2022-09-16T08:20:09.059Z,13.56
2022-09-16T08:22:36.627Z,13.83
2022-09-16T08:25:13.692Z,13.87
2022-09-16T08:27:40.563Z,14.02
2022-09-16T08:30:09.771Z,14.04
2022-09-16T08:32:36.748Z,14.28
2022-09-16T08:35:09.937Z,14.74
2022-09-16T08:37:36.768Z,14.66
2022-09-16T08:40:15.400Z,14.60
2022-09-16T08:42:45.859Z,14.45
2022-09-16T08:45:43.549Z,14.56
2022-09-16T08:48:40.401Z,14.48
2022-09-16T08:51:15.204Z,14.38
2022-09-16T08:53:55.037Z,14.17
2022-09-16T08:56:25.805Z,14.39
2022-09-16T08:58:55.571Z,14.26
2022-09-16T09:01:42.794Z,14.29
2022-09-16T09:04:12.406Z,14.40
2022-09-16T09:06:43.696Z,14.36
2022-09-16T09:10:01.017Z,14.17
2022-09-16T09:12:39.616Z,14.30
2022-09-16T09:15:39.326Z,14.40
2022-09-16T09:24:36.991Z,14.87
2022-09-16T09:27:46.961Z,15.15
2022-09-16T09:30:22.345Z,15.21
2022-09-16T09:33:28.034Z,15.32
2022-09-16T09:36:32.874Z,15.32
2022-09-16T09:39:06.605Z,15.18
2022-09-16T09:41:41.903Z,15.14
2022-09-16T09:44:39.978Z,15.14
2022-09-16T09:47:30.106Z,15.07
2022-09-16T09:50:17.057Z,15.35
2022-09-16T09:52:52.561Z,15.73
2022-09-16T09:55:27.795Z,15.67
2022-09-16T09:58:15.773Z,15.86
2022-09-16T10:00:42.761Z,15.91
2022-09-16T10:03:13.795Z,16.13
2022-09-16T10:05:44.687Z,16.43
2022-09-16T10:08:20.876Z,16.39
2022-09-16T10:11:24.197Z,16.62
2022-09-16T10:16:52.983Z,16.60
2022-09-16T10:19:26.233Z,16.45
2022-09-16T10:22:08.051Z,16.46
2022-09-16T10:24:39.243Z,16.35
2022-09-16T10:30:17.925Z,16.60
2022-09-16T10:33:01.534Z,16.77
2022-09-16T10:36:00.858Z,16.63
2022-09-16T10:39:05.215Z,16.51
2022-09-16T10:44:34.963Z,16.83
2022-09-16T10:47:10.348Z,17.03
2022-09-16T10:49:44.811Z,17.24
2022-09-16T10:52:23.276Z,17.12
2022-09-16T10:54:51.147Z,17.11
2022-09-16T10:57:26.339Z,17.03
2022-09-16T11:00:09.083Z,17.15
2022-09-16T11:02:52.679Z,17.22
2022-09-16T11:05:33.689Z,17.38
2022-09-16T11:08:16.440Z,17.45
2022-09-16T11:10:48.733Z,17.48
2022-09-16T11:13:42.657Z,17.56
2022-09-16T11:16:21.156Z,17.50
2022-09-16T11:22:17.897Z,17.34
2022-09-16T11:25:29.236Z,17.17
2022-09-16T11:28:27.757Z,16.73
2022-09-16T11:31:24.509Z,15.91
2022-09-16T11:34:23.736Z,16.08
2022-09-16T11:37:06.959Z,15.79
2022-09-16T11:39:57.407Z,15.74
2022-09-16T11:42:35.109Z,15.56
2022-09-16T11:45:20.688Z,15.10
2022-09-16T11:48:30.380Z,15.34
2022-09-16T11:51:24.048Z,15.23
2022-09-16T11:54:02.342Z,15.12
2022-09-16T12:00:05.672Z,15.32
2022-09-16T12:02:59.837Z,15.46
2022-09-16T12:05:53.608Z,15.52
2022-09-16T12:08:39.008Z,15.56
2022-09-16T12:11:19.717Z,15.70
2022-09-16T12:14:42.929Z,15.65
2022-09-16T12:20:34.975Z,15.65
2022-09-16T12:23:24.261Z,15.83
2022-09-16T12:26:01.207Z,15.71
2022-09-16T12:29:05.817Z,15.73
2022-09-16T12:31:53.126Z,15.32
2022-09-16T12:34:28.299Z,15.21
2022-09-16T12:37:12.337Z,14.69
2022-09-16T12:39:41.018Z,14.93
2022-09-16T12:42:26.955Z,14.76
2022-09-16T12:45:13.353Z,14.70
2022-09-16T12:47:41.090Z,14.52
2022-09-16T12:50:52.513Z,14.76
2022-09-16T12:53:58.124Z,14.81
2022-09-16T12:57:15.820Z,15.04
2022-09-16T13:00:22.196Z,14.90
2022-09-16T13:02:58.910Z,14.85
2022-09-16T13:05:59.872Z,14.42
2022-09-16T13:08:30.204Z,14.45
2022-09-16T13:12:00.567Z,14.32
2022-09-16T13:14:02.391Z,14.55
2022-09-16T13:16:36.727Z,14.77
2022-09-16T13:22:28.167Z,14.48
2022-09-16T13:25:20.910Z,14.51
2022-09-16T13:28:22.176Z,14.38
2022-09-16T13:30:54.671Z,14.28
2022-09-16T13:33:28.145Z,14.35
2022-09-16T13:36:18.828Z,14.42
2022-09-16T13:41:47.362Z,14.29
2022-09-16T13:44:37.421Z,14.22
2022-09-16T13:47:15.561Z,13.89
2022-09-16T13:50:14.408Z,13.90
2022-09-16T13:52:43.849Z,13.98
2022-09-16T13:55:26.379Z,13.81
2022-09-16T13:58:54.943Z,13.60
2022-09-16T14:01:56.027Z,13.32
2022-09-16T14:05:10.156Z,13.16
2022-09-16T14:07:51.299Z,13.15
2022-09-16T14:10:30.772Z,12.96
2022-09-16T14:13:21.577Z,13.11
2022-09-16T14:15:56.623Z,13.26
2022-09-16T14:18:28.973Z,13.03
2022-09-16T14:21:16.424Z,12.93
2022-09-16T14:23:44.564Z,12.57
2022-09-16T14:26:14.872Z,12.67
2022-09-16T14:28:42.533Z,12.67
2022-09-16T14:31:29.105Z,12.48
2022-09-16T14:34:08.441Z,12.36
2022-09-16T14:36:45.618Z,12.36
2022-09-16T14:39:17.509Z,12.41
2022-09-16T14:42:15.774Z,12.50
2022-09-16T14:44:51.132Z,12.52
2022-09-16T14:50:24.534Z,12.18
2022-09-16T14:52:55.662Z,12.31
2022-09-16T14:55:36.827Z,12.39
2022-09-16T14:58:04.626Z,12.38
2022-09-16T15:00:44.287Z,12.39
2022-09-16T15:03:29.764Z,12.39
2022-09-16T15:06:06.847Z,12.12
2022-09-16T15:08:54.741Z,12.17
2022-09-16T15:11:47.214Z,12.29
2022-09-16T15:14:15.484Z,12.06
2022-09-16T15:16:47.238Z,12.25
2022-09-16T15:19:25.314Z,12.08
2022-09-16T15:24:47.511Z,12.12
2022-09-16T15:27:24.966Z,12.21
2022-09-16T15:29:57.428Z,12.39
2022-09-16T15:32:28.179Z,12.46
2022-09-16T15:35:32.170Z,12.25
2022-09-16T15:38:14.655Z,12.26
2022-09-16T15:40:47.663Z,12.22
2022-09-16T15:43:24.715Z,12.29
2022-09-16T15:46:04.802Z,12.38
2022-09-16T15:48:35.985Z,12.35
2022-09-16T15:51:39.562Z,12.25
2022-09-16T15:54:18.629Z,12.42
2022-09-16T15:57:07.025Z,12.42
2022-09-16T16:00:13.887Z,12.48
2022-09-16T16:02:53.602Z,12.61
2022-09-16T16:08:37.227Z,12.79
2022-09-16T16:11:30.960Z,12.76
2022-09-16T16:14:01.911Z,12.87
2022-09-16T16:16:32.188Z,12.80
2022-09-16T16:19:00.951Z,12.74
2022-09-16T16:21:28.651Z,12.81
2022-09-16T16:23:56.616Z,12.91
2022-09-16T16:26:24.771Z,12.91
2022-09-16T16:28:52.598Z,13.04
2022-09-16T16:34:17.560Z,12.94
2022-09-16T16:36:44.607Z,12.91
2022-09-16T16:39:12.536Z,13.10
2022-09-16T16:41:47.552Z,13.11
2022-09-16T16:47:07.737Z,13.19
2022-09-16T16:49:35.119Z,13.24
2022-09-16T16:52:05.012Z,13.31
2022-09-16T16:54:38.434Z,13.25
2022-09-16T16:57:07.665Z,13.39
2022-09-16T16:59:34.580Z,13.43
2022-09-16T17:04:56.518Z,13.45
2022-09-16T17:10:23.439Z,13.45
2022-09-16T17:13:16.069Z,13.46
2022-09-16T17:15:44.627Z,13.50
2022-09-16T17:18:12.746Z,13.50
2022-09-16T17:20:40.786Z,13.45
2022-09-16T17:23:16.718Z,13.56
2022-09-16T17:28:45.164Z,13.50
2022-09-16T17:31:24.498Z,13.50
2022-09-16T17:36:53.665Z,13.63
2022-09-16T17:39:21.792Z,13.62
2022-09-16T17:41:49.802Z,13.67
2022-09-16T17:47:10.551Z,13.50
2022-09-16T17:49:43.640Z,13.46
2022-09-16T17:52:10.730Z,13.50
2022-09-16T17:54:38.673Z,13.46
2022-09-16T17:57:06.770Z,13.39
2022-09-16T17:59:34.524Z,13.46
2022-09-16T18:02:02.952Z,13.43
2022-09-16T18:07:23.120Z,13.32
2022-09-16T18:09:50.549Z,13.29
2022-09-16T18:12:18.502Z,13.32
2022-09-16T18:14:46.553Z,13.32
2022-09-16T18:17:15.909Z,13.35
2022-09-16T18:19:42.509Z,13.34
2022-09-16T18:22:34.621Z,13.28
2022-09-16T18:25:06.808Z,13.31
2022-09-16T18:27:34.648Z,13.29
2022-09-16T18:30:03.032Z,13.36
2022-09-16T18:32:30.685Z,13.34
2022-09-16T18:34:59.478Z,13.24
2022-09-16T18:37:28.428Z,13.22
2022-09-16T18:40:01.699Z,13.19
2022-09-16T18:42:32.006Z,13.19
2022-09-16T18:45:00.646Z,13.12
2022-09-16T18:47:28.525Z,13.28
2022-09-16T18:50:00.565Z,13.19
2022-09-16T18:52:33.610Z,13.25
2022-09-16T18:57:52.659Z,13.21
2022-09-16T19:03:13.142Z,13.24
2022-09-16T19:05:54.959Z,13.28
2022-09-16T19:11:16.306Z,13.31
2022-09-16T19:13:45.226Z,13.26
2022-09-16T19:16:13.281Z,13.24
2022-09-16T19:18:42.198Z,13.29
2022-09-16T19:21:16.603Z,13.42
2022-09-16T19:24:19.558Z,13.43
2022-09-16T19:26:48.632Z,13.38
2022-09-16T19:29:17.983Z,13.29
2022-09-16T19:31:52.923Z,13.29
2022-09-16T19:34:21.599Z,13.25
2022-09-16T19:36:49.528Z,13.25
2022-09-16T19:39:16.682Z,13.21
2022-09-16T19:41:45.168Z,13.25
2022-09-16T19:44:38.636Z,13.14
2022-09-16T19:47:06.571Z,13.22
2022-09-16T19:52:31.518Z,13.15
2022-09-16T19:55:05.607Z,13.15
2022-09-16T19:57:32.621Z,13.16
2022-09-16T20:00:32.779Z,13.07
2022-09-16T20:03:39.230Z,13.11
2022-09-16T20:06:15.628Z,13.08
2022-09-16T20:08:49.500Z,13.19
2022-09-16T20:11:19.520Z,13.07
2022-09-16T20:16:52.382Z,13.01
2022-09-16T20:19:20.558Z,12.93
2022-09-16T20:21:57.595Z,12.97
2022-09-16T20:24:25.457Z,12.98
2022-09-16T20:26:54.418Z,13.00
2022-09-16T20:29:22.782Z,12.97
2022-09-16T20:31:52.763Z,12.96
2022-09-16T20:34:22.938Z,12.90
2022-09-16T20:36:51.465Z,12.96
2022-09-16T20:39:23.634Z,12.81
2022-09-16T20:41:52.535Z,12.80
2022-09-16T20:44:20.741Z,12.76
2022-09-16T20:46:50.017Z,12.80
2022-09-16T20:49:19.970Z,12.80
2022-09-16T20:54:38.557Z,12.74
2022-09-16T20:57:06.503Z,12.80
2022-09-16T20:59:39.382Z,12.74
2022-09-16T21:02:09.461Z,12.70
2022-09-16T21:04:42.546Z,12.57
2022-09-16T21:07:12.189Z,12.69
2022-09-16T21:09:40.745Z,12.71
2022-09-16T21:12:08.956Z,12.60
2022-09-16T21:14:41.540Z,12.66
2022-09-16T21:17:13.545Z,12.56
2022-09-16T21:19:40.745Z,12.55
2022-09-16T21:22:13.629Z,12.61
2022-09-16T21:43:01.205Z,12.48
2022-09-16T21:45:28.780Z,12.45
2022-09-16T21:48:02.651Z,12.52
2022-09-16T21:50:30.906Z,12.48
2022-09-16T22:10:39.101Z,12.36
2022-09-16T22:13:07.339Z,12.36
2022-09-16T22:15:39.782Z,12.36
2022-09-16T22:18:06.588Z,12.42
2022-09-16T22:20:36.566Z,12.39
2022-09-16T22:23:28.656Z,12.26
2022-09-16T22:25:56.614Z,12.39
2022-09-16T22:28:24.527Z,12.39
2022-09-16T22:30:52.508Z,12.35
2022-09-16T22:33:20.682Z,12.39
2022-09-16T22:35:49.403Z,12.33
2022-09-16T22:38:16.714Z,12.29
2022-09-16T22:40:44.546Z,12.24
2022-09-16T22:43:12.637Z,12.31
2022-09-16T22:45:40.548Z,12.38
2022-09-16T22:48:08.543Z,12.35
2022-09-16T22:50:36.486Z,12.26
2022-09-16T22:53:29.832Z,12.38
2022-09-16T22:56:07.646Z,12.33
2022-09-16T22:58:39.568Z,12.43
2022-09-16T23:04:18.721Z,12.42
2022-09-16T23:06:48.150Z,12.42
2022-09-16T23:09:17.312Z,12.43
2022-09-16T23:11:45.691Z,12.50
2022-09-16T23:16:57.161Z,12.53
2022-09-16T23:19:24.635Z,12.35
2022-09-16T23:22:19.330Z,12.46
2022-09-16T23:24:46.531Z,12.48
2022-09-16T23:27:40.833Z,12.57
2022-09-16T23:30:20.089Z,12.64
2022-09-16T23:32:49.368Z,12.64
2022-09-16T23:35:23.162Z,12.59
2022-09-16T23:37:50.796Z,12.60
2022-09-16T23:40:18.641Z,12.67
2022-09-16T23:42:46.692Z,12.64
2022-09-16T23:45:20.304Z,12.71
